sensor_id;sensor_type;location;lat;lon;timestamp;P1;durP1;ratioP1;P2;durP2;ratioP2
45887;SDS011;31595;51.418;7.572;2023-02-28T00:00:13;8.18;;;4.35;;
45887;SDS011;31595;51.418;7.572;2023-02-28T00:02:41;6.53;;;4.18;;
45887;SDS011;31595;51.418;7.572;2023-02-28T00:05:10;6.45;;;4.07;;
45887;SDS011;31595;51.418;7.572;2023-02-28T00:07:40;5.05;;;3.67;;
45887;SDS011;31595;51.418;7.572;2023-02-28T00:10:10;7.65;;;4.30;;
45887;SDS011;31595;51.418;7.572;2023-02-28T00:12:40;6.60;;;4.13;;
45887;SDS011;31595;51.418;7.572;2023-02-28T00:15:09;7.30;;;4.00;;
45887;SDS011;31595;51.418;7.572;2023-02-28T00:17:37;5.87;;;3.93;;
45887;SDS011;31595;51.418;7.572;2023-02-28T00:20:05;6.90;;;4.13;;
45887;SDS011;31595;51.418;7.572;2023-02-28T00:22:34;5.83;;;3.70;;
45887;SDS011;31595;51.418;7.572;2023-02-28T00:25:01;5.28;;;3.67;;
45887;SDS011;31595;51.418;7.572;2023-02-28T00:27:28;6.35;;;4.13;;
45887;SDS011;31595;51.418;7.572;2023-02-28T00:29:57;8.38;;;4.38;;
45887;SDS011;31595;51.418;7.572;2023-02-28T00:32:25;7.45;;;4.43;;
45887;SDS011;31595;51.418;7.572;2023-02-28T00:34:52;6.32;;;4.38;;
45887;SDS011;31595;51.418;7.572;2023-02-28T00:37:19;7.78;;;4.40;;
45887;SDS011;31595;51.418;7.572;2023-02-28T00:39:46;6.47;;;4.53;;
45887;SDS011;31595;51.418;7.572;2023-02-28T00:42:13;6.82;;;4.50;;
45887;SDS011;31595;51.418;7.572;2023-02-28T00:44:41;6.65;;;4.82;;
45887;SDS011;31595;51.418;7.572;2023-02-28T00:47:09;7.00;;;4.32;;
45887;SDS011;31595;51.418;7.572;2023-02-28T00:49:36;7.90;;;4.47;;
45887;SDS011;31595;51.418;7.572;2023-02-28T00:52:04;6.60;;;4.60;;
45887;SDS011;31595;51.418;7.572;2023-02-28T00:54:31;7.10;;;4.25;;
45887;SDS011;31595;51.418;7.572;2023-02-28T00:56:58;6.65;;;4.60;;
45887;SDS011;31595;51.418;7.572;2023-02-28T00:59:25;8.57;;;4.70;;
45887;SDS011;31595;51.418;7.572;2023-02-28T01:01:53;7.60;;;4.40;;
45887;SDS011;31595;51.418;7.572;2023-02-28T01:04:21;6.13;;;4.40;;
45887;SDS011;31595;51.418;7.572;2023-02-28T01:06:49;6.82;;;4.43;;
45887;SDS011;31595;51.418;7.572;2023-02-28T01:09:25;7.05;;;4.25;;
45887;SDS011;31595;51.418;7.572;2023-02-28T01:11:52;6.85;;;4.70;;
45887;SDS011;31595;51.418;7.572;2023-02-28T01:14:20;7.10;;;4.65;;
45887;SDS011;31595;51.418;7.572;2023-02-28T01:16:47;6.00;;;4.22;;
45887;SDS011;31595;51.418;7.572;2023-02-28T01:19:14;7.53;;;4.93;;
45887;SDS011;31595;51.418;7.572;2023-02-28T01:21:43;6.72;;;4.70;;
45887;SDS011;31595;51.418;7.572;2023-02-28T01:24:13;7.53;;;4.47;;
45887;SDS011;31595;51.418;7.572;2023-02-28T01:26:40;7.25;;;4.40;;
45887;SDS011;31595;51.418;7.572;2023-02-28T01:29:09;7.72;;;4.57;;
45887;SDS011;31595;51.418;7.572;2023-02-28T01:31:39;7.65;;;4.70;;
45887;SDS011;31595;51.418;7.572;2023-02-28T01:34:06;5.70;;;4.20;;
45887;SDS011;31595;51.418;7.572;2023-02-28T01:36:34;7.13;;;4.18;;
45887;SDS011;31595;51.418;7.572;2023-02-28T01:39:03;7.65;;;4.45;;
45887;SDS011;31595;51.418;7.572;2023-02-28T01:41:31;8.52;;;4.70;;
45887;SDS011;31595;51.418;7.572;2023-02-28T01:44:01;7.30;;;4.60;;
45887;SDS011;31595;51.418;7.572;2023-02-28T01:46:33;7.38;;;4.75;;
45887;SDS011;31595;51.418;7.572;2023-02-28T01:49:05;9.13;;;5.28;;
45887;SDS011;31595;51.418;7.572;2023-02-28T01:51:37;9.43;;;5.32;;
45887;SDS011;31595;51.418;7.572;2023-02-28T01:54:12;8.30;;;5.90;;
45887;SDS011;31595;51.418;7.572;2023-02-28T01:56:44;7.20;;;4.88;;
45887;SDS011;31595;51.418;7.572;2023-02-28T01:59:18;6.85;;;4.70;;
45887;SDS011;31595;51.418;7.572;2023-02-28T02:01:48;6.97;;;5.22;;
45887;SDS011;31595;51.418;7.572;2023-02-28T02:04:16;10.65;;;5.20;;
45887;SDS011;31595;51.418;7.572;2023-02-28T02:06:45;7.68;;;5.03;;
45887;SDS011;31595;51.418;7.572;2023-02-28T02:09:16;8.15;;;5.47;;
45887;SDS011;31595;51.418;7.572;2023-02-28T02:11:43;8.18;;;4.88;;
45887;SDS011;31595;51.418;7.572;2023-02-28T02:14:25;7.00;;;4.55;;
45887;SDS011;31595;51.418;7.572;2023-02-28T02:17:05;7.07;;;4.63;;
45887;SDS011;31595;51.418;7.572;2023-02-28T02:19:54;6.68;;;4.93;;
45887;SDS011;31595;51.418;7.572;2023-02-28T02:25:58;7.53;;;4.95;;
45887;SDS011;31595;51.418;7.572;2023-02-28T02:31:29;7.55;;;5.15;;
45887;SDS011;31595;51.418;7.572;2023-02-28T02:36:58;8.23;;;4.95;;
45887;SDS011;31595;51.418;7.572;2023-02-28T02:39:36;9.27;;;5.00;;
45887;SDS011;31595;51.418;7.572;2023-02-28T02:42:13;8.63;;;4.85;;
45887;SDS011;31595;51.418;7.572;2023-02-28T02:44:46;7.72;;;5.03;;
45887;SDS011;31595;51.418;7.572;2023-02-28T02:47:20;7.75;;;4.65;;
45887;SDS011;31595;51.418;7.572;2023-02-28T02:49:53;8.05;;;4.75;;
45887;SDS011;31595;51.418;7.572;2023-02-28T02:52:23;7.22;;;4.68;;
45887;SDS011;31595;51.418;7.572;2023-02-28T02:54:56;7.65;;;4.97;;
45887;SDS011;31595;51.418;7.572;2023-02-28T02:57:26;10.43;;;5.18;;
45887;SDS011;31595;51.418;7.572;2023-02-28T03:00:03;5.03;;;4.43;;
45887;SDS011;31595;51.418;7.572;2023-02-28T03:02:34;9.02;;;4.57;;
45887;SDS011;31595;51.418;7.572;2023-02-28T03:05:08;7.30;;;4.50;;
45887;SDS011;31595;51.418;7.572;2023-02-28T03:07:44;7.75;;;4.93;;
45887;SDS011;31595;51.418;7.572;2023-02-28T03:10:27;7.18;;;4.32;;
45887;SDS011;31595;51.418;7.572;2023-02-28T03:13:00;6.50;;;4.43;;
45887;SDS011;31595;51.418;7.572;2023-02-28T03:15:58;7.20;;;4.18;;
45887;SDS011;31595;51.418;7.572;2023-02-28T03:18:40;6.60;;;4.47;;
45887;SDS011;31595;51.418;7.572;2023-02-28T03:21:22;7.38;;;4.75;;
45887;SDS011;31595;51.418;7.572;2023-02-28T03:23:59;8.30;;;4.78;;
45887;SDS011;31595;51.418;7.572;2023-02-28T03:26:31;7.50;;;5.13;;
45887;SDS011;31595;51.418;7.572;2023-02-28T03:29:03;8.43;;;5.32;;
45887;SDS011;31595;51.418;7.572;2023-02-28T03:31:38;7.22;;;4.13;;
45887;SDS011;31595;51.418;7.572;2023-02-28T03:34:08;7.82;;;4.38;;
45887;SDS011;31595;51.418;7.572;2023-02-28T03:36:43;6.55;;;3.70;;
45887;SDS011;31595;51.418;7.572;2023-02-28T03:39:15;5.60;;;3.95;;
45887;SDS011;31595;51.418;7.572;2023-02-28T03:41:50;6.28;;;4.75;;
45887;SDS011;31595;51.418;7.572;2023-02-28T03:44:21;6.25;;;4.30;;
45887;SDS011;31595;51.418;7.572;2023-02-28T03:46:53;8.38;;;4.05;;
45887;SDS011;31595;51.418;7.572;2023-02-28T03:49:26;6.57;;;4.20;;
45887;SDS011;31595;51.418;7.572;2023-02-28T03:52:02;7.03;;;4.80;;
45887;SDS011;31595;51.418;7.572;2023-02-28T03:54:33;8.35;;;4.50;;
45887;SDS011;31595;51.418;7.572;2023-02-28T03:57:07;6.68;;;4.50;;
45887;SDS011;31595;51.418;7.572;2023-02-28T03:59:47;8.05;;;4.75;;
45887;SDS011;31595;51.418;7.572;2023-02-28T04:02:21;6.70;;;4.90;;
45887;SDS011;31595;51.418;7.572;2023-02-28T04:04:48;7.20;;;4.63;;
45887;SDS011;31595;51.418;7.572;2023-02-28T04:07:18;7.35;;;4.78;;
45887;SDS011;31595;51.418;7.572;2023-02-28T04:09:45;8.20;;;5.18;;
45887;SDS011;31595;51.418;7.572;2023-02-28T04:12:12;10.15;;;5.68;;
45887;SDS011;31595;51.418;7.572;2023-02-28T04:14:39;6.90;;;4.97;;
45887;SDS011;31595;51.418;7.572;2023-02-28T04:17:06;6.65;;;4.90;;
45887;SDS011;31595;51.418;7.572;2023-02-28T04:22:04;7.20;;;4.32;;
45887;SDS011;31595;51.418;7.572;2023-02-28T04:24:33;6.80;;;4.70;;
45887;SDS011;31595;51.418;7.572;2023-02-28T04:27:00;9.02;;;5.10;;
45887;SDS011;31595;51.418;7.572;2023-02-28T04:29:32;9.90;;;4.78;;
45887;SDS011;31595;51.418;7.572;2023-02-28T04:32:00;6.97;;;4.72;;
45887;SDS011;31595;51.418;7.572;2023-02-28T04:34:29;8.23;;;4.10;;
45887;SDS011;31595;51.418;7.572;2023-02-28T04:36:57;5.82;;;4.38;;
45887;SDS011;31595;51.418;7.572;2023-02-28T04:39:26;6.60;;;4.30;;
45887;SDS011;31595;51.418;7.572;2023-02-28T04:41:54;6.10;;;3.85;;
45887;SDS011;31595;51.418;7.572;2023-02-28T04:44:22;5.87;;;4.90;;
45887;SDS011;31595;51.418;7.572;2023-02-28T04:46:49;6.80;;;4.53;;
45887;SDS011;31595;51.418;7.572;2023-02-28T04:49:16;7.57;;;4.32;;
45887;SDS011;31595;51.418;7.572;2023-02-28T04:51:44;5.97;;;4.13;;
45887;SDS011;31595;51.418;7.572;2023-02-28T04:54:11;5.78;;;4.47;;
45887;SDS011;31595;51.418;7.572;2023-02-28T04:56:38;6.90;;;4.60;;
45887;SDS011;31595;51.418;7.572;2023-02-28T04:59:07;7.15;;;4.35;;
45887;SDS011;31595;51.418;7.572;2023-02-28T05:01:34;7.18;;;3.90;;
45887;SDS011;31595;51.418;7.572;2023-02-28T05:04:03;7.18;;;4.15;;
45887;SDS011;31595;51.418;7.572;2023-02-28T05:06:32;6.13;;;4.13;;
45887;SDS011;31595;51.418;7.572;2023-02-28T05:09:00;5.72;;;4.03;;
45887;SDS011;31595;51.418;7.572;2023-02-28T05:11:28;6.10;;;3.78;;
45887;SDS011;31595;51.418;7.572;2023-02-28T05:14:00;6.15;;;3.95;;
45887;SDS011;31595;51.418;7.572;2023-02-28T05:16:36;7.18;;;4.65;;
45887;SDS011;31595;51.418;7.572;2023-02-28T05:19:03;7.10;;;4.15;;
45887;SDS011;31595;51.418;7.572;2023-02-28T05:21:32;5.68;;;3.47;;
45887;SDS011;31595;51.418;7.572;2023-02-28T05:24:01;6.95;;;3.35;;
45887;SDS011;31595;51.418;7.572;2023-02-28T05:26:30;7.53;;;4.20;;
45887;SDS011;31595;51.418;7.572;2023-02-28T05:28:58;6.65;;;4.25;;
45887;SDS011;31595;51.418;7.572;2023-02-28T05:31:25;6.60;;;3.72;;
45887;SDS011;31595;51.418;7.572;2023-02-28T05:33:55;6.75;;;4.22;;
45887;SDS011;31595;51.418;7.572;2023-02-28T05:36:22;5.47;;;3.80;;
45887;SDS011;31595;51.418;7.572;2023-02-28T05:38:54;5.35;;;3.47;;
45887;SDS011;31595;51.418;7.572;2023-02-28T05:41:24;5.03;;;3.90;;
45887;SDS011;31595;51.418;7.572;2023-02-28T05:43:53;6.28;;;4.07;;
45887;SDS011;31595;51.418;7.572;2023-02-28T05:46:31;4.75;;;3.40;;
45887;SDS011;31595;51.418;7.572;2023-02-28T05:49:41;6.85;;;4.68;;
45887;SDS011;31595;51.418;7.572;2023-02-28T05:52:09;6.88;;;3.95;;
45887;SDS011;31595;51.418;7.572;2023-02-28T05:55:09;4.43;;;3.42;;
45887;SDS011;31595;51.418;7.572;2023-02-28T05:58:01;6.75;;;3.85;;
45887;SDS011;31595;51.418;7.572;2023-02-28T06:00:41;5.50;;;3.90;;
45887;SDS011;31595;51.418;7.572;2023-02-28T06:03:09;4.90;;;3.45;;
45887;SDS011;31595;51.418;7.572;2023-02-28T06:05:52;5.22;;;3.72;;
45887;SDS011;31595;51.418;7.572;2023-02-28T06:08:20;9.77;;;5.28;;
45887;SDS011;31595;51.418;7.572;2023-02-28T06:10:48;7.45;;;5.47;;
45887;SDS011;31595;51.418;7.572;2023-02-28T06:13:19;6.57;;;4.85;;
45887;SDS011;31595;51.418;7.572;2023-02-28T06:16:00;7.70;;;5.40;;
45887;SDS011;31595;51.418;7.572;2023-02-28T06:18:46;7.22;;;4.63;;
45887;SDS011;31595;51.418;7.572;2023-02-28T06:21:19;7.60;;;4.13;;
45887;SDS011;31595;51.418;7.572;2023-02-28T06:24:08;7.28;;;4.10;;
45887;SDS011;31595;51.418;7.572;2023-02-28T06:27:12;6.07;;;4.10;;
45887;SDS011;31595;51.418;7.572;2023-02-28T06:29:52;6.72;;;4.57;;
45887;SDS011;31595;51.418;7.572;2023-02-28T06:32:21;6.20;;;3.85;;
45887;SDS011;31595;51.418;7.572;2023-02-28T06:35:06;8.10;;;4.97;;
45887;SDS011;31595;51.418;7.572;2023-02-28T06:38:12;6.45;;;3.90;;
45887;SDS011;31595;51.418;7.572;2023-02-28T06:40:54;6.97;;;3.85;;
45887;SDS011;31595;51.418;7.572;2023-02-28T06:47:06;4.60;;;3.30;;
45887;SDS011;31595;51.418;7.572;2023-02-28T06:49:36;5.40;;;3.53;;
45887;SDS011;31595;51.418;7.572;2023-02-28T06:52:42;5.85;;;3.60;;
45887;SDS011;31595;51.418;7.572;2023-02-28T06:55:12;7.03;;;3.53;;
45887;SDS011;31595;51.418;7.572;2023-02-28T06:58:00;5.57;;;3.13;;
45887;SDS011;31595;51.418;7.572;2023-02-28T07:00:49;3.00;;;2.55;;
45887;SDS011;31595;51.418;7.572;2023-02-28T07:03:18;4.25;;;2.70;;
45887;SDS011;31595;51.418;7.572;2023-02-28T07:05:46;4.65;;;3.17;;
45887;SDS011;31595;51.418;7.572;2023-02-28T07:08:25;3.80;;;2.65;;
45887;SDS011;31595;51.418;7.572;2023-02-28T07:11:12;5.10;;;2.70;;
45887;SDS011;31595;51.418;7.572;2023-02-28T07:13:47;3.83;;;2.60;;
45887;SDS011;31595;51.418;7.572;2023-02-28T07:16:22;4.18;;;2.50;;
45887;SDS011;31595;51.418;7.572;2023-02-28T07:19:01;4.28;;;2.78;;
45887;SDS011;31595;51.418;7.572;2023-02-28T07:21:52;5.07;;;2.90;;
45887;SDS011;31595;51.418;7.572;2023-02-28T07:27:17;5.53;;;2.90;;
45887;SDS011;31595;51.418;7.572;2023-02-28T07:33:17;8.13;;;6.45;;
45887;SDS011;31595;51.418;7.572;2023-02-28T07:36:26;5.78;;;5.15;;
45887;SDS011;31595;51.418;7.572;2023-02-28T07:41:39;4.07;;;3.05;;
45887;SDS011;31595;51.418;7.572;2023-02-28T07:51:49;8.45;;;5.18;;
45887;SDS011;31595;51.418;7.572;2023-02-28T07:54:23;17.30;;;13.15;;
45887;SDS011;31595;51.418;7.572;2023-02-28T07:57:00;14.32;;;9.82;;
45887;SDS011;31595;51.418;7.572;2023-02-28T08:06:27;8.18;;;3.70;;
45887;SDS011;31595;51.418;7.572;2023-02-28T08:08:59;9.38;;;4.30;;
45887;SDS011;31595;51.418;7.572;2023-02-28T08:11:34;6.25;;;4.32;;
45887;SDS011;31595;51.418;7.572;2023-02-28T08:14:24;5.93;;;4.00;;
45887;SDS011;31595;51.418;7.572;2023-02-28T08:17:03;7.75;;;4.82;;
45887;SDS011;31595;51.418;7.572;2023-02-28T08:19:37;8.30;;;4.78;;
45887;SDS011;31595;51.418;7.572;2023-02-28T08:22:05;9.50;;;6.03;;
45887;SDS011;31595;51.418;7.572;2023-02-28T08:25:03;8.60;;;5.60;;
45887;SDS011;31595;51.418;7.572;2023-02-28T08:27:35;7.30;;;5.15;;
45887;SDS011;31595;51.418;7.572;2023-02-28T08:33:16;7.78;;;5.13;;
45887;SDS011;31595;51.418;7.572;2023-02-28T08:35:45;7.13;;;4.63;;
45887;SDS011;31595;51.418;7.572;2023-02-28T08:38:23;9.43;;;4.95;;
45887;SDS011;31595;51.418;7.572;2023-02-28T08:47:46;5.88;;;4.20;;
45887;SDS011;31595;51.418;7.572;2023-02-28T08:50:23;6.68;;;4.20;;
45887;SDS011;31595;51.418;7.572;2023-02-28T08:55:54;7.05;;;4.55;;
45887;SDS011;31595;51.418;7.572;2023-02-28T08:57:13;6.95;;;4.20;;
45887;SDS011;31595;51.418;7.572;2023-02-28T08:59:59;7.97;;;4.80;;
45887;SDS011;31595;51.418;7.572;2023-02-28T09:10:12;8.07;;;4.72;;
45887;SDS011;31595;51.418;7.572;2023-02-28T09:12:46;6.93;;;4.80;;
45887;SDS011;31595;51.418;7.572;2023-02-28T09:15:22;9.13;;;4.30;;
45887;SDS011;31595;51.418;7.572;2023-02-28T09:18:22;8.63;;;4.95;;
45887;SDS011;31595;51.418;7.572;2023-02-28T09:21:08;7.30;;;5.20;;
45887;SDS011;31595;51.418;7.572;2023-02-28T09:23:47;9.90;;;5.22;;
45887;SDS011;31595;51.418;7.572;2023-02-28T09:26:22;6.78;;;4.80;;
45887;SDS011;31595;51.418;7.572;2023-02-28T09:37:31;9.18;;;4.97;;
45887;SDS011;31595;51.418;7.572;2023-02-28T09:40:20;4.35;;;3.28;;
45887;SDS011;31595;51.418;7.572;2023-02-28T09:43:12;7.20;;;4.13;;
45887;SDS011;31595;51.418;7.572;2023-02-28T09:49:32;5.97;;;3.60;;
45887;SDS011;31595;51.418;7.572;2023-02-28T09:58:57;4.43;;;2.40;;
45887;SDS011;31595;51.418;7.572;2023-02-28T10:01:30;3.97;;;2.53;;
45887;SDS011;31595;51.418;7.572;2023-02-28T10:04:10;4.32;;;2.53;;
45887;SDS011;31595;51.418;7.572;2023-02-28T10:07:19;3.15;;;2.25;;
45887;SDS011;31595;51.418;7.572;2023-02-28T10:10:01;3.50;;;2.58;;
45887;SDS011;31595;51.418;7.572;2023-02-28T10:13:19;4.22;;;2.65;;
45887;SDS011;31595;51.418;7.572;2023-02-28T10:22:36;3.55;;;2.20;;
45887;SDS011;31595;51.418;7.572;2023-02-28T10:25:16;3.03;;;2.15;;
45887;SDS011;31595;51.418;7.572;2023-02-28T10:28:17;3.13;;;2.22;;
45887;SDS011;31595;51.418;7.572;2023-02-28T10:31:03;3.97;;;2.00;;
45887;SDS011;31595;51.418;7.572;2023-02-28T10:40:30;3.25;;;2.00;;
45887;SDS011;31595;51.418;7.572;2023-02-28T10:54:42;2.30;;;1.65;;
45887;SDS011;31595;51.418;7.572;2023-02-28T10:57:15;2.78;;;2.03;;
45887;SDS011;31595;51.418;7.572;2023-02-28T11:00:07;2.50;;;1.63;;
45887;SDS011;31595;51.418;7.572;2023-02-28T11:06:16;3.25;;;1.77;;
45887;SDS011;31595;51.418;7.572;2023-02-28T11:09:21;2.65;;;1.70;;
45887;SDS011;31595;51.418;7.572;2023-02-28T11:12:26;3.03;;;1.73;;
45887;SDS011;31595;51.418;7.572;2023-02-28T11:26:36;2.97;;;1.50;;
45887;SDS011;31595;51.418;7.572;2023-02-28T11:29:47;2.30;;;1.90;;
45887;SDS011;31595;51.418;7.572;2023-02-28T11:32:16;4.50;;;2.17;;
45887;SDS011;31595;51.418;7.572;2023-02-28T11:34:59;3.67;;;1.73;;
45887;SDS011;31595;51.418;7.572;2023-02-28T11:46:43;2.17;;;1.80;;
45887;SDS011;31595;51.418;7.572;2023-02-28T11:49:40;1.95;;;1.60;;
45887;SDS011;31595;51.418;7.572;2023-02-28T12:02:28;2.58;;;1.75;;
45887;SDS011;31595;51.418;7.572;2023-02-28T12:05:18;2.38;;;1.70;;
45887;SDS011;31595;51.418;7.572;2023-02-28T12:08:02;2.50;;;2.13;;
45887;SDS011;31595;51.418;7.572;2023-02-28T12:11:15;2.08;;;1.65;;
45887;SDS011;31595;51.418;7.572;2023-02-28T12:14:07;3.00;;;2.03;;
45887;SDS011;31595;51.418;7.572;2023-02-28T12:26:57;2.38;;;1.77;;
45887;SDS011;31595;51.418;7.572;2023-02-28T12:30:00;3.50;;;2.25;;
45887;SDS011;31595;51.418;7.572;2023-02-28T12:32:54;3.03;;;1.90;;
45887;SDS011;31595;51.418;7.572;2023-02-28T12:35:32;2.20;;;2.00;;
45887;SDS011;31595;51.418;7.572;2023-02-28T12:38:12;2.67;;;1.92;;
45887;SDS011;31595;51.418;7.572;2023-02-28T12:40:44;3.50;;;1.63;;
45887;SDS011;31595;51.418;7.572;2023-02-28T12:43:16;3.22;;;2.15;;
45887;SDS011;31595;51.418;7.572;2023-02-28T12:46:07;2.63;;;2.15;;
45887;SDS011;31595;51.418;7.572;2023-02-28T12:48:50;3.65;;;2.60;;
45887;SDS011;31595;51.418;7.572;2023-02-28T12:51:51;2.83;;;2.30;;
45887;SDS011;31595;51.418;7.572;2023-02-28T12:54:23;4.85;;;2.08;;
45887;SDS011;31595;51.418;7.572;2023-02-28T13:00:43;3.33;;;2.30;;
45887;SDS011;31595;51.418;7.572;2023-02-28T13:06:34;2.83;;;2.55;;
45887;SDS011;31595;51.418;7.572;2023-02-28T13:09:26;3.08;;;2.85;;
45887;SDS011;31595;51.418;7.572;2023-02-28T13:11:57;3.30;;;2.20;;
45887;SDS011;31595;51.418;7.572;2023-02-28T13:23:16;4.78;;;3.97;;
45887;SDS011;31595;51.418;7.572;2023-02-28T13:36:51;2.80;;;2.58;;
45887;SDS011;31595;51.418;7.572;2023-02-28T13:40:30;7.30;;;6.90;;
45887;SDS011;31595;51.418;7.572;2023-02-28T13:43:48;2.80;;;2.40;;
45887;SDS011;31595;51.418;7.572;2023-02-28T13:47:21;3.78;;;2.25;;
45887;SDS011;31595;51.418;7.572;2023-02-28T13:52:47;5.50;;;2.38;;
45887;SDS011;31595;51.418;7.572;2023-02-28T13:55:25;4.53;;;2.50;;
45887;SDS011;31595;51.418;7.572;2023-02-28T14:01:40;2.88;;;2.33;;
45887;SDS011;31595;51.418;7.572;2023-02-28T14:05:13;2.78;;;2.08;;
45887;SDS011;31595;51.418;7.572;2023-02-28T14:07:47;3.78;;;2.40;;
45887;SDS011;31595;51.418;7.572;2023-02-28T14:10:22;2.75;;;2.13;;
45887;SDS011;31595;51.418;7.572;2023-02-28T14:16:44;2.17;;;1.92;;
45887;SDS011;31595;51.418;7.572;2023-02-28T14:19:16;2.72;;;2.17;;
45887;SDS011;31595;51.418;7.572;2023-02-28T14:22:25;3.42;;;2.40;;
45887;SDS011;31595;51.418;7.572;2023-02-28T14:25:35;3.10;;;2.38;;
45887;SDS011;31595;51.418;7.572;2023-02-28T14:28:14;3.08;;;2.05;;
45887;SDS011;31595;51.418;7.572;2023-02-28T14:30:59;4.13;;;3.10;;
45887;SDS011;31595;51.418;7.572;2023-02-28T14:37:28;4.18;;;2.90;;
45887;SDS011;31595;51.418;7.572;2023-02-28T14:40:11;4.38;;;3.05;;
45887;SDS011;31595;51.418;7.572;2023-02-28T14:42:48;2.75;;;2.13;;
45887;SDS011;31595;51.418;7.572;2023-02-28T14:45:48;3.33;;;2.40;;
45887;SDS011;31595;51.418;7.572;2023-02-28T14:48:30;3.40;;;2.28;;
45887;SDS011;31595;51.418;7.572;2023-02-28T14:51:03;3.72;;;2.72;;
45887;SDS011;31595;51.418;7.572;2023-02-28T14:53:35;3.53;;;2.60;;
45887;SDS011;31595;51.418;7.572;2023-02-28T14:56:17;3.33;;;2.63;;
45887;SDS011;31595;51.418;7.572;2023-02-28T14:58:52;4.13;;;2.45;;
45887;SDS011;31595;51.418;7.572;2023-02-28T15:01:31;2.83;;;2.42;;
45887;SDS011;31595;51.418;7.572;2023-02-28T15:07:08;4.18;;;2.60;;
45887;SDS011;31595;51.418;7.572;2023-02-28T15:13:11;4.22;;;2.78;;
45887;SDS011;31595;51.418;7.572;2023-02-28T15:16:08;4.60;;;3.15;;
45887;SDS011;31595;51.418;7.572;2023-02-28T15:18:58;4.82;;;3.00;;
45887;SDS011;31595;51.418;7.572;2023-02-28T15:21:29;5.00;;;2.92;;
45887;SDS011;31595;51.418;7.572;2023-02-28T15:25:35;7.97;;;4.72;;
45887;SDS011;31595;51.418;7.572;2023-02-28T15:27:16;4.35;;;3.22;;
45887;SDS011;31595;51.418;7.572;2023-02-28T15:29:49;4.25;;;3.28;;
45887;SDS011;31595;51.418;7.572;2023-02-28T15:32:32;3.47;;;2.80;;
45887;SDS011;31595;51.418;7.572;2023-02-28T15:35:20;3.03;;;2.40;;
45887;SDS011;31595;51.418;7.572;2023-02-28T15:37:55;3.72;;;3.00;;
45887;SDS011;31595;51.418;7.572;2023-02-28T15:40:26;3.85;;;2.90;;
45887;SDS011;31595;51.418;7.572;2023-02-28T15:43:02;5.82;;;2.97;;
45887;SDS011;31595;51.418;7.572;2023-02-28T15:45:36;6.72;;;3.60;;
45887;SDS011;31595;51.418;7.572;2023-02-28T15:48:30;4.30;;;3.60;;
45887;SDS011;31595;51.418;7.572;2023-02-28T15:51:06;5.88;;;3.67;;
45887;SDS011;31595;51.418;7.572;2023-02-28T15:53:37;3.90;;;3.10;;
45887;SDS011;31595;51.418;7.572;2023-02-28T15:56:19;4.13;;;3.05;;
45887;SDS011;31595;51.418;7.572;2023-02-28T15:58:54;3.70;;;2.85;;
45887;SDS011;31595;51.418;7.572;2023-02-28T16:01:33;3.15;;;2.42;;
45887;SDS011;31595;51.418;7.572;2023-02-28T16:04:06;4.20;;;2.70;;
45887;SDS011;31595;51.418;7.572;2023-02-28T16:06:40;3.60;;;2.65;;
45887;SDS011;31595;51.418;7.572;2023-02-28T16:09:11;4.80;;;3.03;;
45887;SDS011;31595;51.418;7.572;2023-02-28T16:11:46;3.45;;;2.95;;
45887;SDS011;31595;51.418;7.572;2023-02-28T16:14:39;4.82;;;3.85;;
45887;SDS011;31595;51.418;7.572;2023-02-28T16:17:07;5.18;;;3.55;;
45887;SDS011;31595;51.418;7.572;2023-02-28T16:19:47;3.47;;;2.90;;
45887;SDS011;31595;51.418;7.572;2023-02-28T16:22:16;4.40;;;2.72;;
45887;SDS011;31595;51.418;7.572;2023-02-28T16:24:47;5.07;;;3.10;;
45887;SDS011;31595;51.418;7.572;2023-02-28T16:27:16;4.43;;;2.78;;
45887;SDS011;31595;51.418;7.572;2023-02-28T16:30:09;4.47;;;2.95;;
45887;SDS011;31595;51.418;7.572;2023-02-28T16:32:51;3.78;;;2.97;;
45887;SDS011;31595;51.418;7.572;2023-02-28T16:35:43;5.47;;;2.72;;
45887;SDS011;31595;51.418;7.572;2023-02-28T16:41:26;5.05;;;3.15;;
45887;SDS011;31595;51.418;7.572;2023-02-28T16:50:15;4.72;;;3.42;;
45887;SDS011;31595;51.418;7.572;2023-02-28T16:52:48;6.45;;;4.05;;
45887;SDS011;31595;51.418;7.572;2023-02-28T16:55:29;7.50;;;4.13;;
45887;SDS011;31595;51.418;7.572;2023-02-28T16:58:00;5.80;;;4.00;;
45887;SDS011;31595;51.418;7.572;2023-02-28T17:00:34;5.68;;;4.40;;
45887;SDS011;31595;51.418;7.572;2023-02-28T17:03:14;6.75;;;4.40;;
45887;SDS011;31595;51.418;7.572;2023-02-28T17:05:50;4.90;;;2.88;;
45887;SDS011;31595;51.418;7.572;2023-02-28T17:08:19;5.25;;;3.45;;
45887;SDS011;31595;51.418;7.572;2023-02-28T17:11:04;5.80;;;3.53;;
45887;SDS011;31595;51.418;7.572;2023-02-28T17:13:31;4.85;;;3.60;;
45887;SDS011;31595;51.418;7.572;2023-02-28T17:16:00;6.18;;;3.63;;
45887;SDS011;31595;51.418;7.572;2023-02-28T17:18:28;4.72;;;3.50;;
45887;SDS011;31595;51.418;7.572;2023-02-28T17:20:59;6.20;;;3.70;;
45887;SDS011;31595;51.418;7.572;2023-02-28T17:23:29;4.88;;;3.55;;
45887;SDS011;31595;51.418;7.572;2023-02-28T17:26:16;5.63;;;3.45;;
45887;SDS011;31595;51.418;7.572;2023-02-28T17:28:46;5.10;;;4.00;;
45887;SDS011;31595;51.418;7.572;2023-02-28T17:31:18;5.65;;;4.72;;
45887;SDS011;31595;51.418;7.572;2023-02-28T17:33:47;5.97;;;4.22;;
45887;SDS011;31595;51.418;7.572;2023-02-28T17:36:14;5.45;;;4.22;;
45887;SDS011;31595;51.418;7.572;2023-02-28T17:38:44;9.23;;;5.25;;
45887;SDS011;31595;51.418;7.572;2023-02-28T17:41:13;10.20;;;6.23;;
45887;SDS011;31595;51.418;7.572;2023-02-28T17:43:47;11.02;;;6.43;;
45887;SDS011;31595;51.418;7.572;2023-02-28T17:46:17;11.98;;;6.07;;
45887;SDS011;31595;51.418;7.572;2023-02-28T17:48:48;8.18;;;5.80;;
45887;SDS011;31595;51.418;7.572;2023-02-28T17:51:17;7.88;;;5.70;;
45887;SDS011;31595;51.418;7.572;2023-02-28T17:53:48;7.75;;;5.28;;
45887;SDS011;31595;51.418;7.572;2023-02-28T17:56:17;7.50;;;5.57;;
45887;SDS011;31595;51.418;7.572;2023-02-28T17:58:50;8.50;;;5.50;;
45887;SDS011;31595;51.418;7.572;2023-02-28T18:01:19;8.00;;;5.07;;
45887;SDS011;31595;51.418;7.572;2023-02-28T18:03:48;7.33;;;5.20;;
45887;SDS011;31595;51.418;7.572;2023-02-28T18:06:16;11.40;;;6.97;;
45887;SDS011;31595;51.418;7.572;2023-02-28T18:08:52;11.73;;;8.13;;
45887;SDS011;31595;51.418;7.572;2023-02-28T18:11:20;11.32;;;6.22;;
45887;SDS011;31595;51.418;7.572;2023-02-28T18:13:52;11.55;;;7.15;;
45887;SDS011;31595;51.418;7.572;2023-02-28T18:16:23;5.72;;;4.07;;
45887;SDS011;31595;51.418;7.572;2023-02-28T18:18:51;7.05;;;3.92;;
45887;SDS011;31595;51.418;7.572;2023-02-28T18:21:19;4.70;;;3.92;;
45887;SDS011;31595;51.418;7.572;2023-02-28T18:23:46;5.50;;;3.58;;
45887;SDS011;31595;51.418;7.572;2023-02-28T18:26:19;5.82;;;3.42;;
45887;SDS011;31595;51.418;7.572;2023-02-28T18:28:47;5.53;;;4.10;;
45887;SDS011;31595;51.418;7.572;2023-02-28T18:31:15;5.47;;;4.18;;
45887;SDS011;31595;51.418;7.572;2023-02-28T18:33:44;10.27;;;7.60;;
45887;SDS011;31595;51.418;7.572;2023-02-28T18:36:15;5.30;;;4.63;;
45887;SDS011;31595;51.418;7.572;2023-02-28T18:38:47;6.55;;;4.32;;
45887;SDS011;31595;51.418;7.572;2023-02-28T18:41:16;8.32;;;4.28;;
45887;SDS011;31595;51.418;7.572;2023-02-28T18:43:46;4.40;;;3.60;;
45887;SDS011;31595;51.418;7.572;2023-02-28T18:46:15;4.85;;;3.72;;
45887;SDS011;31595;51.418;7.572;2023-02-28T18:48:46;4.57;;;3.65;;
45887;SDS011;31595;51.418;7.572;2023-02-28T18:51:14;4.40;;;3.80;;
45887;SDS011;31595;51.418;7.572;2023-02-28T18:53:47;5.10;;;3.85;;
45887;SDS011;31595;51.418;7.572;2023-02-28T18:56:19;7.65;;;4.50;;
45887;SDS011;31595;51.418;7.572;2023-02-28T18:58:57;5.07;;;4.40;;
45887;SDS011;31595;51.418;7.572;2023-02-28T19:01:25;5.45;;;3.65;;
45887;SDS011;31595;51.418;7.572;2023-02-28T19:03:58;6.55;;;3.75;;
45887;SDS011;31595;51.418;7.572;2023-02-28T19:06:28;5.50;;;4.05;;